Time;durP1;ratioP1;P1;durP2;ratioP2;P2;SDS_P1;SDS_P2;PMS_P1;PMS_P2;Temp;Humidity;BMP_temperature;BMP_pressure;BME280_temperature;BME280_humidity;BME280_pressure;Samples;Min_cycle;Max_cycle;Signal;HPM_P1;HPM_P2
2021/06/16 00:00:11;;;;;;;7.88;3.33;;;;;;;;;;5096026;28;20131;-66
2021/06/16 00:02:38;;;;;;;13.20;3.95;;;;;;;;;;5094840;28;21092;-66
2021/06/16 00:05:08;;;;;;;11.02;3.60;;;;;;;;;;5102646;28;20058;-66
2021/06/16 00:07:34;;;;;;;9.77;3.80;;;;;;;;;;5096561;28;20066;-66
2021/06/16 00:10:00;;;;;;;11.63;4.20;;;;;;;;;;5097392;28;20079;-65
2021/06/16 00:12:27;;;;;;;14.45;3.92;;;;;;;;;;5102146;28;20096;-65
2021/06/16 00:14:53;;;;;;;11.50;3.97;;;;;;;;;;5098210;28;20496;-66
2021/06/16 00:17:20;;;;;;;10.13;4.05;;;;;;;;;;5092006;28;20048;-66
2021/06/16 00:19:46;;;;;;;9.20;3.92;;;;;;;;;;5100069;27;20046;-64
2021/06/16 00:22:13;;;;;;;11.50;4.20;;;;;;;;;;5095384;28;20055;-64
2021/06/16 00:24:39;;;;;;;10.57;4.28;;;;;;;;;;5097033;28;20067;-64
2021/06/16 00:27:05;;;;;;;8.98;4.28;;;;;;;;;;5096963;28;20031;-64
2021/06/16 00:29:32;;;;;;;10.80;4.18;;;;;;;;;;5099758;28;20448;-64
2021/06/16 00:31:58;;;;;;;8.93;4.00;;;;;;;;;;5096386;28;20496;-64
2021/06/16 00:34:25;;;;;;;14.93;4.93;;;;;;;;;;5092340;28;20043;-64
2021/06/16 00:36:51;;;;;;;10.90;4.43;;;;;;;;;;5100935;28;20388;-64
2021/06/16 00:39:17;;;;;;;11.93;4.60;;;;;;;;;;5094492;28;20487;-64
2021/06/16 00:41:44;;;;;;;14.85;5.18;;;;;;;;;;5097439;27;20522;-64
2021/06/16 00:44:10;;;;;;;11.50;4.40;;;;;;;;;;5094064;28;20067;-64
2021/06/16 00:46:37;;;;;;;10.50;4.38;;;;;;;;;;5100375;28;20044;-64
2021/06/16 00:49:04;;;;;;;11.10;4.68;;;;;;;;;;5097177;28;20063;-64
2021/06/16 00:51:30;;;;;;;11.32;4.22;;;;;;;;;;5102349;28;20085;-64
2021/06/16 00:53:56;;;;;;;13.38;4.78;;;;;;;;;;5099400;28;20104;-64
2021/06/16 00:56:23;;;;;;;9.65;4.32;;;;;;;;;;5102065;28;20154;-64
2021/06/16 00:58:49;;;;;;;10.35;4.25;;;;;;;;;;5098444;28;20040;-64
2021/06/16 01:01:15;;;;;;;11.13;4.75;;;;;;;;;;5100696;28;20031;-64
2021/06/16 01:03:57;;;;;;;12.68;4.60;;;;;;;;;;5100896;28;20038;-64
2021/06/16 01:06:27;;;;;;;13.15;4.28;;;;;;;;;;5099337;28;20139;-63
2021/06/16 01:09:19;;;;;;;9.77;4.65;;;;;;;;;;5090211;28;20131;-64
2021/06/16 01:12:03;;;;;;;10.40;5.03;;;;;;;;;;5094067;27;20032;-63
2021/06/16 01:14:33;;;;;;;11.63;5.10;;;;;;;;;;5091598;28;20043;-63
2021/06/16 01:17:02;;;;;;;12.25;4.93;;;;;;;;;;5098138;28;20564;-64
2021/06/16 01:19:54;;;;;;;11.52;4.82;;;;;;;;;;5089566;28;20043;-64
2021/06/16 01:22:39;;;;;;;9.77;4.70;;;;;;;;;;5098270;28;20044;-64
2021/06/16 01:25:05;;;;;;;;;;;;;;;;;;5091532;28;20042;-64
2021/06/16 01:27:32;;;;;;;8.23;4.60;;;;;;;;;;5093638;28;19916;-64
2021/06/16 01:29:59;;;;;;;10.93;5.05;;;;;;;;;;5092274;28;20065;-64
2021/06/16 01:32:25;;;;;;;11.73;5.15;;;;;;;;;;5102000;28;20042;-64
2021/06/16 01:34:52;;;;;;;11.82;5.00;;;;;;;;;;5088903;28;20040;-64
2021/06/16 01:37:18;;;;;;;13.20;5.22;;;;;;;;;;5091449;28;20036;-64
2021/06/16 01:39:45;;;;;;;13.60;5.63;;;;;;;;;;5098757;28;20081;-64
2021/06/16 01:42:13;;;;;;;10.55;4.57;;;;;;;;;;5088444;28;20054;-64
2021/06/16 01:44:40;;;;;;;9.70;4.63;;;;;;;;;;5099386;28;20116;-64
2021/06/16 01:47:06;;;;;;;11.75;5.35;;;;;;;;;;5099203;28;20047;-64
2021/06/16 01:49:33;;;;;;;12.95;4.70;;;;;;;;;;5101166;28;20457;-64
2021/06/16 01:52:00;;;;;;;10.43;5.03;;;;;;;;;;5094957;28;20113;-64
2021/06/16 01:54:27;;;;;;;12.13;5.13;;;;;;;;;;5095522;28;20031;-64
2021/06/16 01:56:54;;;;;;;13.05;5.13;;;;;;;;;;5094424;28;20066;-64
2021/06/16 01:59:21;;;;;;;9.88;5.28;;;;;;;;;;5099755;28;20079;-64
2021/06/16 02:01:48;;;;;;;8.93;4.70;;;;;;;;;;5091600;28;20039;-64
2021/06/16 02:04:15;;;;;;;15.20;5.28;;;;;;;;;;5091827;28;20372;-65
2021/06/16 02:06:42;;;;;;;13.95;5.30;;;;;;;;;;5097222;28;20116;-64
2021/06/16 02:09:09;;;;;;;10.98;5.20;;;;;;;;;;5099389;28;20048;-64
2021/06/16 02:11:39;;;;;;;10.43;5.03;;;;;;;;;;5091115;28;20118;-65
2021/06/16 02:14:06;;;;;;;9.98;4.95;;;;;;;;;;5105169;28;20116;-64
2021/06/16 02:16:36;;;;;;;11.32;4.85;;;;;;;;;;5093785;28;20046;-65
2021/06/16 02:19:09;;;;;;;11.77;4.93;;;;;;;;;;5097529;28;20096;-65
2021/06/16 02:21:35;;;;;;;8.98;4.75;;;;;;;;;;5097688;28;20411;-64
2021/06/16 02:24:02;;;;;;;9.77;5.13;;;;;;;;;;5096126;28;20122;-65
2021/06/16 02:26:28;;;;;;;14.73;5.82;;;;;;;;;;5102828;27;20031;-64
2021/06/16 02:28:54;;;;;;;13.77;5.18;;;;;;;;;;5094944;28;20134;-64
2021/06/16 02:31:20;;;;;;;11.95;5.10;;;;;;;;;;5098027;28;20074;-64
2021/06/16 02:33:49;;;;;;;10.52;4.55;;;;;;;;;;5101318;28;20066;-64
2021/06/16 02:36:15;;;;;;;11.52;5.15;;;;;;;;;;5108470;28;20050;-64
2021/06/16 02:38:43;;;;;;;11.95;4.78;;;;;;;;;;5090405;28;20052;-64
2021/06/16 02:41:12;;;;;;;11.93;5.95;;;;;;;;;;5107065;28;20031;-64
2021/06/16 02:43:38;;;;;;;9.65;5.18;;;;;;;;;;5096843;28;20036;-64
2021/06/16 02:46:06;;;;;;;7.53;4.60;;;;;;;;;;5105392;28;20588;-64
2021/06/16 02:48:33;;;;;;;9.77;5.32;;;;;;;;;;5092513;28;21055;-64
2021/06/16 02:50:59;;;;;;;9.35;5.38;;;;;;;;;;5103090;28;20032;-64
2021/06/16 02:53:26;;;;;;;11.43;5.82;;;;;;;;;;5095104;28;20031;-64
2021/06/16 02:55:56;;;;;;;11.35;5.82;;;;;;;;;;5098110;27;20102;-64
2021/06/16 02:58:23;;;;;;;12.07;5.70;;;;;;;;;;5090019;28;20135;-64
2021/06/16 03:00:55;;;;;;;11.38;5.72;;;;;;;;;;5103666;28;20036;-64
2021/06/16 03:03:22;;;;;;;13.77;6.22;;;;;;;;;;5092965;28;20114;-64
2021/06/16 03:05:52;;;;;;;9.43;5.57;;;;;;;;;;5106705;28;20467;-64
2021/06/16 03:08:20;;;;;;;11.38;5.68;;;;;;;;;;5109272;28;20039;-64
2021/06/16 03:10:46;;;;;;;8.50;5.72;;;;;;;;;;5096574;27;20150;-64
2021/06/16 03:13:12;;;;;;;9.50;6.03;;;;;;;;;;5106736;27;20516;-64
2021/06/16 03:15:42;;;;;;;12.82;6.13;;;;;;;;;;5095769;28;20051;-64
2021/06/16 03:18:09;;;;;;;10.13;6.07;;;;;;;;;;5098844;28;20043;-64
2021/06/16 03:20:36;;;;;;;9.80;5.68;;;;;;;;;;5094057;28;20044;-64
2021/06/16 03:23:02;;;;;;;10.82;6.60;;;;;;;;;;5097731;28;20039;-64
2021/06/16 03:25:29;;;;;;;11.10;5.85;;;;;;;;;;5098567;28;20403;-64
2021/06/16 03:27:55;;;;;;;10.85;6.50;;;;;;;;;;5098741;28;20051;-64
2021/06/16 03:30:23;;;;;;;11.38;6.32;;;;;;;;;;5093799;28;20167;-64
2021/06/16 03:32:54;;;;;;;10.88;5.57;;;;;;;;;;5107763;28;20503;-64
2021/06/16 03:35:20;;;;;;;11.65;5.95;;;;;;;;;;5095057;28;20047;-64
2021/06/16 03:37:47;;;;;;;11.00;6.28;;;;;;;;;;5100043;28;20419;-64
2021/06/16 03:40:13;;;;;;;11.20;5.97;;;;;;;;;;5101936;28;20669;-64
2021/06/16 03:42:40;;;;;;;11.75;6.53;;;;;;;;;;5098144;27;20032;-64
2021/06/16 03:45:07;;;;;;;10.70;6.05;;;;;;;;;;5090546;28;22032;-64
2021/06/16 03:47:34;;;;;;;10.90;6.43;;;;;;;;;;5102155;28;20134;-64
2021/06/16 03:50:01;;;;;;;11.70;6.45;;;;;;;;;;5091151;28;20039;-64
2021/06/16 03:52:27;;;;;;;11.48;6.25;;;;;;;;;;5092599;28;20082;-64
2021/06/16 03:54:54;;;;;;;12.02;6.80;;;;;;;;;;5084876;27;20468;-64
2021/06/16 03:57:20;;;;;;;15.88;6.60;;;;;;;;;;5100651;27;20027;-64
2021/06/16 03:59:47;;;;;;;9.82;6.28;;;;;;;;;;5108324;28;20044;-64
2021/06/16 04:02:16;;;;;;;12.32;6.45;;;;;;;;;;5087950;28;20131;-64
2021/06/16 04:04:42;;;;;;;12.02;6.30;;;;;;;;;;5104893;28;20044;-64
2021/06/16 04:07:09;;;;;;;11.32;6.35;;;;;;;;;;5097300;27;20107;-64
2021/06/16 04:09:35;;;;;;;11.40;6.15;;;;;;;;;;5101636;28;20438;-64
2021/06/16 04:12:02;;;;;;;8.77;5.70;;;;;;;;;;5097567;27;20114;-64
2021/06/16 04:14:28;;;;;;;10.15;6.35;;;;;;;;;;5099425;28;20036;-64
2021/06/16 04:16:56;;;;;;;12.95;5.97;;;;;;;;;;5087665;28;20081;-64
2021/06/16 04:19:22;;;;;;;9.38;6.00;;;;;;;;;;5094301;28;20044;-64
2021/06/16 04:21:48;;;;;;;11.13;6.13;;;;;;;;;;5097115;28;20073;-64
2021/06/16 04:24:14;;;;;;;10.80;5.82;;;;;;;;;;5100543;28;20070;-64
2021/06/16 04:26:41;;;;;;;15.02;7.05;;;;;;;;;;5087935;28;20048;-64
2021/06/16 04:29:07;;;;;;;11.32;7.10;;;;;;;;;;5095757;28;20055;-64
2021/06/16 04:31:35;;;;;;;10.88;6.13;;;;;;;;;;5100265;28;20047;-64
2021/06/16 04:34:01;;;;;;;17.02;6.47;;;;;;;;;;5098280;28;20111;-64
2021/06/16 04:36:27;;;;;;;9.63;6.15;;;;;;;;;;5107313;28;20063;-64
2021/06/16 04:38:54;;;;;;;12.43;6.50;;;;;;;;;;5092642;28;20047;-64
2021/06/16 04:41:20;;;;;;;11.85;6.07;;;;;;;;;;5101907;27;20051;-65
2021/06/16 04:43:46;;;;;;;10.15;5.93;;;;;;;;;;5098629;28;20398;-64
2021/06/16 04:46:12;;;;;;;14.93;6.70;;;;;;;;;;5095194;28;20064;-64
2021/06/16 04:48:42;;;;;;;9.40;5.90;;;;;;;;;;5095357;28;20086;-64
2021/06/16 04:51:08;;;;;;;11.57;6.30;;;;;;;;;;5083116;28;20080;-64
2021/06/16 04:53:34;;;;;;;10.63;6.15;;;;;;;;;;5100324;28;20036;-64
2021/06/16 04:56:00;;;;;;;9.63;5.78;;;;;;;;;;5099339;28;20253;-64
2021/06/16 04:58:26;;;;;;;13.80;6.00;;;;;;;;;;5092961;28;20046;-64
2021/06/16 05:00:53;;;;;;;10.55;5.72;;;;;;;;;;5094134;28;20097;-64
2021/06/16 05:03:19;;;;;;;9.90;5.70;;;;;;;;;;5098733;27;20463;-64
2021/06/16 05:05:45;;;;;;;11.55;5.45;;;;;;;;;;5098200;28;20381;-64
2021/06/16 05:08:12;;;;;;;11.13;5.45;;;;;;;;;;5089564;28;20047;-64
2021/06/16 05:10:38;;;;;;;12.82;5.53;;;;;;;;;;5107092;28;20130;-64
2021/06/16 05:13:04;;;;;;;11.38;6.25;;;;;;;;;;5099572;28;20126;-64
2021/06/16 05:15:30;;;;;;;8.88;5.07;;;;;;;;;;5092644;28;20039;-65
2021/06/16 05:17:56;;;;;;;12.10;4.90;;;;;;;;;;5096348;28;20505;-65
2021/06/16 05:20:24;;;;;;;9.10;5.03;;;;;;;;;;5093059;28;20036;-65
2021/06/16 05:22:50;;;;;;;12.05;5.20;;;;;;;;;;5100397;28;20044;-65
2021/06/16 05:25:17;;;;;;;8.85;4.90;;;;;;;;;;5091808;28;20040;-65
2021/06/16 05:27:44;;;;;;;10.98;6.07;;;;;;;;;;5097721;28;20059;-65
2021/06/16 05:30:11;;;;;;;11.88;5.30;;;;;;;;;;5090579;28;20072;-65
2021/06/16 05:32:37;;;;;;;8.90;4.93;;;;;;;;;;5096539;27;20371;-65
2021/06/16 05:35:04;;;;;;;9.40;4.80;;;;;;;;;;5089491;28;20126;-65
2021/06/16 05:37:30;;;;;;;10.13;5.07;;;;;;;;;;5106893;28;20046;-65
2021/06/16 05:39:57;;;;;;;14.43;4.88;;;;;;;;;;5098550;28;20515;-65
2021/06/16 05:42:23;;;;;;;12.57;5.53;;;;;;;;;;5100862;28;20551;-65
2021/06/16 05:44:49;;;;;;;14.05;5.25;;;;;;;;;;5098553;28;20492;-65
2021/06/16 05:47:16;;;;;;;10.52;4.57;;;;;;;;;;5103603;28;20039;-66
2021/06/16 05:49:42;;;;;;;17.17;7.32;;;;;;;;;;5098675;28;20032;-66
2021/06/16 05:52:08;;;;;;;13.18;5.22;;;;;;;;;;5104902;28;20027;-66
2021/06/16 05:54:38;;;;;;;10.90;6.15;;;;;;;;;;5100579;28;20046;-66
2021/06/16 05:57:04;;;;;;;12.13;5.13;;;;;;;;;;5095437;28;20040;-66
2021/06/16 05:59:33;;;;;;;9.35;5.38;;;;;;;;;;5105914;28;20071;-66
2021/06/16 06:02:00;;;;;;;13.13;5.53;;;;;;;;;;5087691;28;20138;-66
2021/06/16 06:04:26;;;;;;;10.65;5.32;;;;;;;;;;5110763;28;20525;-66
2021/06/16 06:06:52;;;;;;;9.05;4.68;;;;;;;;;;5098465;28;20116;-65
2021/06/16 06:09:19;;;;;;;13.07;6.10;;;;;;;;;;5110131;28;20566;-65
2021/06/16 06:11:45;;;;;;;11.77;5.30;;;;;;;;;;5102273;28;20036;-65
2021/06/16 06:14:11;;;;;;;10.35;4.80;;;;;;;;;;5110989;28;20399;-65
2021/06/16 06:16:37;;;;;;;10.93;5.10;;;;;;;;;;5103170;27;20040;-65
2021/06/16 06:19:03;;;;;;;10.90;4.30;;;;;;;;;;5099937;28;20044;-65
2021/06/16 06:21:32;;;;;;;9.43;5.25;;;;;;;;;;5098353;28;20070;-65
2021/06/16 06:23:59;;;;;;;9.90;5.30;;;;;;;;;;5101751;27;20380;-65
2021/06/16 06:26:26;;;;;;;12.13;5.30;;;;;;;;;;5094568;28;20059;-68
2021/06/16 06:28:52;;;;;;;9.20;4.63;;;;;;;;;;5112866;27;20040;-68
2021/06/16 06:31:18;;;;;;;10.90;4.53;;;;;;;;;;5102021;28;20130;-65
2021/06/16 06:33:44;;;;;;;10.00;4.97;;;;;;;;;;5110118;28;20710;-66
2021/06/16 06:36:11;;;;;;;8.60;4.45;;;;;;;;;;5112476;28;20414;-66
2021/06/16 06:38:37;;;;;;;11.43;4.85;;;;;;;;;;5099447;28;20047;-66
2021/06/16 06:41:03;;;;;;;9.18;4.43;;;;;;;;;;5109340;28;20398;-66
2021/06/16 06:43:29;;;;;;;13.27;5.18;;;;;;;;;;5102872;28;20059;-64
2021/06/16 06:45:56;;;;;;;10.98;5.55;;;;;;;;;;5109946;28;20134;-65
2021/06/16 06:48:22;;;;;;;10.13;5.00;;;;;;;;;;5096188;27;20047;-65
2021/06/16 06:50:48;;;;;;;10.32;5.13;;;;;;;;;;5097362;27;20079;-66
2021/06/16 06:53:15;;;;;;;8.63;5.13;;;;;;;;;;5103994;28;20042;-66
2021/06/16 06:55:42;;;;;;;13.05;5.15;;;;;;;;;;5105926;28;20040;-65
2021/06/16 06:58:09;;;;;;;10.88;5.15;;;;;;;;;;5105156;27;20032;-65
2021/06/16 07:00:35;;;;;;;10.50;4.55;;;;;;;;;;5105704;28;20320;-65
2021/06/16 07:03:01;;;;;;;8.80;4.38;;;;;;;;;;5099825;28;20043;-65
2021/06/16 07:05:27;;;;;;;9.70;5.20;;;;;;;;;;5103429;28;20051;-65
2021/06/16 07:07:54;;;;;;;11.00;4.40;;;;;;;;;;5091659;28;20040;-65
2021/06/16 07:10:20;;;;;;;8.88;5.10;;;;;;;;;;5100537;28;20048;-65
2021/06/16 07:12:46;;;;;;;8.85;4.50;;;;;;;;;;5096376;28;20488;-65
2021/06/16 07:15:12;;;;;;;12.35;4.80;;;;;;;;;;5094997;28;20036;-65
2021/06/16 07:17:39;;;;;;;12.00;5.03;;;;;;;;;;5092873;28;22018;-65
2021/06/16 07:20:06;;;;;;;9.35;4.68;;;;;;;;;;5092034;28;20051;-65
2021/06/16 07:22:32;;;;;;;11.55;4.25;;;;;;;;;;5098454;28;20040;-65
2021/06/16 07:24:59;;;;;;;10.63;4.47;;;;;;;;;;5097317;28;20395;-65
2021/06/16 07:27:25;;;;;;;11.00;3.88;;;;;;;;;;5102059;28;20058;-65
2021/06/16 07:29:51;;;;;;;9.50;4.18;;;;;;;;;;5091606;28;20557;-65
2021/06/16 07:32:18;;;;;;;10.32;4.75;;;;;;;;;;5098331;28;20082;-66
2021/06/16 07:34:44;;;;;;;9.40;4.68;;;;;;;;;;5096481;28;20138;-66
2021/06/16 07:37:10;;;;;;;9.30;3.53;;;;;;;;;;5096669;28;20506;-66
2021/06/16 07:39:36;;;;;;;7.70;4.10;;;;;;;;;;5093885;28;20073;-66
2021/06/16 07:42:03;;;;;;;7.75;3.53;;;;;;;;;;5096667;28;20044;-66
2021/06/16 07:44:30;;;;;;;9.63;3.70;;;;;;;;;;5096751;28;20036;-66
2021/06/16 07:46:56;;;;;;;8.98;4.30;;;;;;;;;;5096129;28;20040;-66
2021/06/16 07:49:22;;;;;;;6.93;4.10;;;;;;;;;;5091686;28;20055;-66
2021/06/16 07:51:49;;;;;;;11.95;4.53;;;;;;;;;;5100483;28;20087;-66
2021/06/16 07:54:15;;;;;;;9.52;4.43;;;;;;;;;;5101803;28;20036;-66
2021/06/16 07:56:42;;;;;;;8.18;4.30;;;;;;;;;;5094603;28;20090;-66
2021/06/16 07:59:09;;;;;;;8.18;4.68;;;;;;;;;;5097797;28;20412;-66
2021/06/16 08:01:37;;;;;;;10.35;5.32;;;;;;;;;;5092572;28;20134;-66
2021/06/16 08:04:03;;;;;;;9.05;4.63;;;;;;;;;;5097062;28;20043;-66
2021/06/16 08:06:29;;;;;;;9.77;4.03;;;;;;;;;;5091349;28;20127;-66
2021/06/16 08:08:56;;;;;;;6.15;4.20;;;;;;;;;;5097302;28;20040;-66
2021/06/16 08:11:25;;;;;;;9.23;4.50;;;;;;;;;;5101519;28;20508;-66
2021/06/16 08:13:51;;;;;;;9.30;3.92;;;;;;;;;;5101080;28;20088;-66
2021/06/16 08:16:21;;;;;;;8.23;4.88;;;;;;;;;;5092649;28;20441;-66
2021/06/16 08:18:47;;;;;;;9.50;4.80;;;;;;;;;;5092508;28;20474;-66
2021/06/16 08:21:14;;;;;;;7.35;4.53;;;;;;;;;;5095972;28;20131;-66
2021/06/16 08:23:41;;;;;;;8.98;4.40;;;;;;;;;;5096911;28;20081;-66
2021/06/16 08:26:07;;;;;;;9.73;4.25;;;;;;;;;;5090934;28;20039;-66
2021/06/16 08:28:33;;;;;;;10.93;4.65;;;;;;;;;;5094080;28;20054;-66
2021/06/16 08:30:59;;;;;;;9.38;4.03;;;;;;;;;;5088006;28;20048;-66
2021/06/16 08:33:26;;;;;;;9.52;4.57;;;;;;;;;;5100601;28;20355;-66
2021/06/16 08:35:52;;;;;;;5.97;2.97;;;;;;;;;;5096740;28;20032;-66
2021/06/16 08:38:18;;;;;;;7.93;3.20;;;;;;;;;;5102384;28;20036;-66
2021/06/16 08:40:44;;;;;;;7.95;4.28;;;;;;;;;;5101108;28;20416;-66
2021/06/16 08:43:13;;;;;;;6.25;2.63;;;;;;;;;;5090802;28;20089;-66
2021/06/16 08:45:40;;;;;;;6.00;2.20;;;;;;;;;;5108201;28;20054;-66
2021/06/16 08:48:07;;;;;;;4.45;2.17;;;;;;;;;;5093626;28;20036;-66
2021/06/16 08:50:33;;;;;;;4.18;1.63;;;;;;;;;;5100369;28;20043;-66
2021/06/16 08:52:59;;;;;;;5.18;2.20;;;;;;;;;;5091719;28;20040;-66
2021/06/16 08:55:25;;;;;;;4.38;1.70;;;;;;;;;;5094460;28;20040;-66
2021/06/16 08:57:52;;;;;;;9.18;2.60;;;;;;;;;;5092306;28;20445;-67
2021/06/16 09:00:19;;;;;;;6.85;2.17;;;;;;;;;;5096676;28;20024;-66
2021/06/16 09:02:45;;;;;;;7.85;2.05;;;;;;;;;;5089177;28;20027;-66
2021/06/16 09:05:12;;;;;;;6.88;2.10;;;;;;;;;;5105074;28;20130;-67
2021/06/16 09:07:39;;;;;;;7.40;2.40;;;;;;;;;;5091748;28;20040;-66
2021/06/16 09:10:06;;;;;;;5.50;2.58;;;;;;;;;;5098902;28;20058;-66
2021/06/16 09:12:33;;;;;;;6.82;2.10;;;;;;;;;;5086745;28;20044;-66
2021/06/16 09:14:59;;;;;;;4.80;1.90;;;;;;;;;;5094374;28;20043;-66
2021/06/16 09:17:25;;;;;;;5.03;1.85;;;;;;;;;;5094059;28;20036;-67
2021/06/16 09:19:58;;;;;;;7.05;2.25;;;;;;;;;;5094194;28;20134;-67
2021/06/16 09:22:42;;;;;;;5.60;1.90;;;;;;;;;;5091908;28;20050;-67
2021/06/16 09:25:10;;;;;;;5.40;2.22;;;;;;;;;;5088732;28;20464;-67
2021/06/16 09:27:38;;;;;;;4.72;1.92;;;;;;;;;;5096119;28;20039;-67
2021/06/16 09:30:25;;;;;;;4.70;1.88;;;;;;;;;;5089779;28;20408;-68
2021/06/16 09:32:56;;;;;;;5.28;1.40;;;;;;;;;;5094384;28;20043;-68
2021/06/16 09:35:22;;;;;;;6.13;1.65;;;;;;;;;;5085633;28;20040;-67
2021/06/16 09:37:49;;;;;;;4.63;1.88;;;;;;;;;;5093777;28;20093;-67
2021/06/16 09:40:23;;;;;;;7.78;2.10;;;;;;;;;;5094796;28;20042;-67
2021/06/16 09:43:00;;;;;;;6.03;1.83;;;;;;;;;;5091755;28;20058;-67
2021/06/16 09:45:27;;;;;;;5.35;1.90;;;;;;;;;;5091938;28;20056;-67
2021/06/16 09:47:53;;;;;;;4.75;1.83;;;;;;;;;;5093820;28;20044;-67
2021/06/16 09:50:26;;;;;;;5.55;2.08;;;;;;;;;;5091484;28;20039;-68
2021/06/16 09:52:53;;;;;;;5.23;2.17;;;;;;;;;;5091224;28;20222;-68
2021/06/16 09:55:22;;;;;;;4.72;2.15;;;;;;;;;;5089432;28;20476;-68
2021/06/16 09:58:05;;;;;;;6.97;1.98;;;;;;;;;;5098598;28;20111;-68
2021/06/16 10:00:33;;;;;;;6.30;2.40;;;;;;;;;;5088803;28;20449;-68
2021/06/16 10:03:09;;;;;;;4.82;2.00;;;;;;;;;;5093330;28;20039;-68
2021/06/16 10:05:36;;;;;;;5.82;2.00;;;;;;;;;;5095917;28;20188;-68
2021/06/16 10:08:02;;;;;;;5.05;1.50;;;;;;;;;;5103763;28;20031;-67
2021/06/16 10:10:28;;;;;;;4.40;1.80;;;;;;;;;;5096982;28;20064;-68
2021/06/16 10:12:54;;;;;;;7.68;2.10;;;;;;;;;;5090076;28;20433;-68
2021/06/16 10:15:21;;;;;;;6.07;1.98;;;;;;;;;;5092351;28;20537;-67
2021/06/16 10:17:49;;;;;;;4.18;1.90;;;;;;;;;;5097928;28;20040;-69
2021/06/16 10:20:16;;;;;;;4.10;1.75;;;;;;;;;;5097553;28;20044;-69
2021/06/16 10:22:42;;;;;;;3.92;1.67;;;;;;;;;;5091669;28;20040;-68
2021/06/16 10:25:09;;;;;;;4.78;1.65;;;;;;;;;;5094342;28;20448;-68
2021/06/16 10:27:37;;;;;;;4.20;1.70;;;;;;;;;;5090429;28;20038;-68
2021/06/16 10:30:09;;;;;;;4.50;1.75;;;;;;;;;;5096661;28;20059;-69
2021/06/16 10:32:36;;;;;;;7.05;3.90;;;;;;;;;;5087089;28;20074;-69
2021/06/16 10:35:03;;;;;;;5.13;2.17;;;;;;;;;;5094618;28;20031;-68
2021/06/16 10:37:37;;;;;;;4.45;1.40;;;;;;;;;;5093014;28;20484;-69
2021/06/16 10:40:15;;;;;;;3.53;1.30;;;;;;;;;;5091790;28;20040;-69
2021/06/16 10:43:02;;;;;;;4.88;1.30;;;;;;;;;;5091816;28;20422;-69
2021/06/16 10:45:31;;;;;;;4.57;1.50;;;;;;;;;;5103779;28;20047;-69
2021/06/16 10:47:57;;;;;;;4.85;1.60;;;;;;;;;;5093948;28;20071;-68
2021/06/16 10:50:42;;;;;;;5.20;1.60;;;;;;;;;;5096999;28;20039;-68
2021/06/16 10:53:08;;;;;;;6.20;2.00;;;;;;;;;;5095893;28;20089;-68
2021/06/16 10:55:53;;;;;;;2.97;1.10;;;;;;;;;;5099392;28;20042;-68
2021/06/16 10:58:25;;;;;;;5.95;1.42;;;;;;;;;;5097907;28;20040;-69
2021/06/16 11:01:11;;;;;;;5.90;1.30;;;;;;;;;;5098519;28;20371;-68
2021/06/16 11:03:53;;;;;;;4.18;1.27;;;;;;;;;;5096207;28;20069;-68
2021/06/16 11:06:35;;;;;;;6.30;0.93;;;;;;;;;;5109601;28;20053;-69
2021/06/16 11:09:06;;;;;;;3.28;1.05;;;;;;;;;;5091435;28;20071;-69
2021/06/16 11:11:50;;;;;;;7.30;1.40;;;;;;;;;;5097950;28;20453;-69
2021/06/16 11:14:35;;;;;;;5.20;1.30;;;;;;;;;;5098688;28;20043;-69
2021/06/16 11:17:05;;;;;;;4.05;0.95;;;;;;;;;;5093155;28;20028;-68
2021/06/16 11:19:37;;;;;;;5.85;1.33;;;;;;;;;;5092660;28;20047;-69
2021/06/16 11:22:13;;;;;;;5.65;1.30;;;;;;;;;;5103940;28;20036;-68
2021/06/16 11:24:57;;;;;;;3.30;1.40;;;;;;;;;;5095091;28;20411;-68
2021/06/16 11:27:42;;;;;;;6.90;1.27;;;;;;;;;;5095207;28;20475;-69
2021/06/16 11:30:10;;;;;;;4.32;1.02;;;;;;;;;;5091985;28;20059;-68
2021/06/16 11:32:36;;;;;;;3.30;1.10;;;;;;;;;;5097784;28;20173;-68
2021/06/16 11:35:02;;;;;;;3.25;1.10;;;;;;;;;;5097236;28;20112;-69
2021/06/16 11:37:47;;;;;;;4.95;1.25;;;;;;;;;;5109743;28;20090;-68
2021/06/16 11:40:17;;;;;;;4.38;0.90;;;;;;;;;;5088840;28;20230;-68
2021/06/16 11:42:44;;;;;;;2.88;1.10;;;;;;;;;;5098196;28;20040;-69
2021/06/16 11:45:10;;;;;;;2.78;1.13;;;;;;;;;;5091170;28;20035;-69
2021/06/16 11:47:37;;;;;;;3.40;0.90;;;;;;;;;;5095127;28;20442;-68
2021/06/16 11:50:03;;;;;;;3.22;0.95;;;;;;;;;;5097288;28;20036;-68
2021/06/16 11:52:29;;;;;;;3.83;1.00;;;;;;;;;;5095818;28;20043;-69
2021/06/16 11:54:55;;;;;;;4.03;1.00;;;;;;;;;;5093062;28;20062;-68
2021/06/16 11:57:26;;;;;;;3.33;1.15;;;;;;;;;;5098457;28;20153;-68
2021/06/16 11:59:53;;;;;;;5.57;2.03;;;;;;;;;;5095173;28;20050;-68
2021/06/16 12:02:20;;;;;;;3.78;0.90;;;;;;;;;;5099589;28;20036;-68
2021/06/16 12:04:47;;;;;;;3.88;0.90;;;;;;;;;;5089507;28;20132;-68
2021/06/16 12:07:19;;;;;;;4.90;1.20;;;;;;;;;;5095221;28;20040;-68
2021/06/16 12:09:50;;;;;;;6.57;1.27;;;;;;;;;;5093706;28;20498;-68
2021/06/16 12:12:16;;;;;;;5.18;1.33;;;;;;;;;;5102888;28;20063;-68
2021/06/16 12:14:42;;;;;;;3.63;0.90;;;;;;;;;;5088296;28;20086;-68
2021/06/16 12:17:08;;;;;;;3.13;1.30;;;;;;;;;;5093644;28;20056;-68
2021/06/16 12:19:39;;;;;;;4.05;1.50;;;;;;;;;;5104991;28;20046;-68
2021/06/16 12:22:09;;;;;;;6.35;1.17;;;;;;;;;;5097440;28;20063;-68
2021/06/16 12:24:36;;;;;;;4.70;1.35;;;;;;;;;;5095560;28;20040;-70
2021/06/16 12:27:05;;;;;;;5.82;1.02;;;;;;;;;;5090155;28;20101;-70
2021/06/16 12:29:33;;;;;;;4.53;1.20;;;;;;;;;;5098639;28;20533;-70
2021/06/16 12:32:05;;;;;;;3.10;1.25;;;;;;;;;;5090569;28;20032;-69
2021/06/16 12:37:09;;;;;;;3.45;1.15;;;;;;;;;;5096342;28;20111;-69
2021/06/16 12:39:37;;;;;;;4.30;1.38;;;;;;;;;;5099615;28;20066;-69
2021/06/16 12:42:07;;;;;;;3.58;1.17;;;;;;;;;;5093675;28;20367;-70
2021/06/16 12:44:37;;;;;;;3.95;1.05;;;;;;;;;;5097258;28;20086;-70
2021/06/16 12:47:04;;;;;;;4.63;1.38;;;;;;;;;;5091668;28;20048;-69
2021/06/16 12:49:48;;;;;;;3.58;1.17;;;;;;;;;;5097835;28;20135;-69
2021/06/16 12:52:26;;;;;;;4.10;1.52;;;;;;;;;;5094251;28;20913;-70
2021/06/16 12:54:52;;;;;;;4.80;1.23;;;;;;;;;;5100325;28;20043;-70
2021/06/16 12:57:23;;;;;;;3.00;1.38;;;;;;;;;;5097737;28;20059;-70
2021/06/16 12:59:50;;;;;;;4.25;1.40;;;;;;;;;;5098430;28;20044;-70
2021/06/16 13:02:29;;;;;;;6.35;1.63;;;;;;;;;;5091363;28;20399;-69
2021/06/16 13:04:59;;;;;;;4.65;1.40;;;;;;;;;;5103780;28;20040;-70
2021/06/16 13:07:41;;;;;;;6.15;1.25;;;;;;;;;;5099367;28;20124;-70
2021/06/16 13:10:13;;;;;;;4.05;1.58;;;;;;;;;;5095968;28;20472;-70
2021/06/16 13:12:50;;;;;;;3.87;1.33;;;;;;;;;;5091598;28;20040;-68
2021/06/16 13:15:17;;;;;;;5.25;1.40;;;;;;;;;;5095804;28;20116;-68
2021/06/16 13:17:50;;;;;;;2.47;1.30;;;;;;;;;;5096344;28;20487;-68
2021/06/16 13:20:30;;;;;;;4.18;1.73;;;;;;;;;;5098397;28;20036;-68
2021/06/16 13:22:56;;;;;;;5.32;1.60;;;;;;;;;;5094324;28;20036;-68
2021/06/16 13:25:28;;;;;;;5.15;1.88;;;;;;;;;;5095899;28;21016;-68
2021/06/16 13:28:00;;;;;;;11.80;1.93;;;;;;;;;;5093444;28;20165;-68
2021/06/16 13:30:52;;;;;;;4.05;1.50;;;;;;;;;;5103913;28;20309;-68
2021/06/16 13:33:29;;;;;;;5.97;1.75;;;;;;;;;;5088598;28;20097;-68
2021/06/16 13:35:55;;;;;;;3.90;1.45;;;;;;;;;;5093774;28;20078;-68
2021/06/16 13:38:21;;;;;;;5.93;2.05;;;;;;;;;;5090656;28;20067;-69
2021/06/16 13:40:47;;;;;;;5.47;1.98;;;;;;;;;;5095022;28;20036;-68
2021/06/16 13:43:14;;;;;;;5.30;2.25;;;;;;;;;;5092510;28;20036;-69
2021/06/16 13:45:40;;;;;;;4.53;2.40;;;;;;;;;;5103291;28;20032;-68
2021/06/16 13:48:07;;;;;;;4.80;2.60;;;;;;;;;;5089720;28;20480;-69
2021/06/16 13:50:34;;;;;;;4.00;1.88;;;;;;;;;;5095669;28;20439;-69
2021/06/16 13:53:00;;;;;;;5.63;2.40;;;;;;;;;;5094576;28;20559;-69
2021/06/16 13:55:26;;;;;;;5.28;2.28;;;;;;;;;;5093584;28;20028;-69
2021/06/16 13:57:52;;;;;;;6.20;2.60;;;;;;;;;;5106441;28;20035;-69
2021/06/16 14:00:18;;;;;;;5.38;2.33;;;;;;;;;;5093737;28;20093;-68
2021/06/16 14:02:45;;;;;;;6.68;2.50;;;;;;;;;;5092955;28;20054;-68
2021/06/16 14:05:12;;;;;;;7.45;3.30;;;;;;;;;;5091347;28;20083;-69
2021/06/16 14:07:38;;;;;;;4.25;2.75;;;;;;;;;;5097022;28;20101;-69
2021/06/16 14:10:05;;;;;;;6.20;2.65;;;;;;;;;;5087551;28;20047;-69
2021/06/16 14:12:32;;;;;;;4.85;2.67;;;;;;;;;;5091501;28;20058;-69
2021/06/16 14:14:58;;;;;;;5.25;2.50;;;;;;;;;;5095392;28;20118;-69
2021/06/16 14:17:24;;;;;;;6.45;3.00;;;;;;;;;;5101272;28;20040;-69
2021/06/16 14:19:50;;;;;;;6.00;3.03;;;;;;;;;;5088750;28;20468;-68
2021/06/16 14:22:17;;;;;;;3.58;2.45;;;;;;;;;;5094988;28;20263;-69
2021/06/16 14:24:43;;;;;;;3.85;2.70;;;;;;;;;;5095865;28;20040;-68
2021/06/16 14:27:09;;;;;;;5.68;2.63;;;;;;;;;;5102294;28;20036;-68
2021/06/16 14:29:35;;;;;;;6.22;2.55;;;;;;;;;;5098566;28;20487;-69
2021/06/16 14:32:01;;;;;;;8.50;2.85;;;;;;;;;;5090179;28;20523;-68
2021/06/16 14:34:28;;;;;;;7.00;3.60;;;;;;;;;;5107475;28;20465;-69
2021/06/16 14:36:54;;;;;;;7.70;2.90;;;;;;;;;;5097297;28;20035;-68
2021/06/16 14:39:20;;;;;;;4.78;2.90;;;;;;;;;;5095326;28;20515;-68
2021/06/16 14:41:46;;;;;;;6.28;2.97;;;;;;;;;;5092914;28;20146;-68
2021/06/16 14:44:12;;;;;;;5.13;3.17;;;;;;;;;;5105889;28;20070;-69
2021/06/16 14:46:38;;;;;;;7.95;3.20;;;;;;;;;;5099025;28;20039;-69